Port Kent, New York
Current Conditions -  °F | °C
As of 4:53 AM on Thursday 27 Nov 2014 (Local Time) from KPBG Reporting Station
Overcast Overcast  
Wind Chill: 15°   Ceiling: 8500
Heat Index: 27°   Visibility: 9mi
Dew Point: 24°   Wind: 15mph
Humidity: 89%   Direction: 350°N
Pressure: 29.97"   Gusts: NA
Location:  44.53°N, 73.41°W
Report Text: KPBG 270953Z AUTO 35013KT 9SM SCT032 OVC085 M03/M04 A2997 RMK AO2 SNE35 SLP153 P0000 T10281044
Loading
Personal Weather Stations






























Interactive Weather Map New forecast layout! Learn more

10-Day Weather Forecast

Advertisements
Track Severe Weather on mobile